createdAt,value
2023-02-22T00:02:11.231Z,663.70
2023-02-22T00:06:17.210Z,642.63
2023-02-22T00:10:22.013Z,602.10
2023-02-22T00:14:26.491Z,589.40
2023-02-22T00:18:29.759Z,572.33
2023-02-22T00:22:31.468Z,572.47
2023-02-22T00:26:33.952Z,550.22
2023-02-22T00:30:36.580Z,575.72
2023-02-22T00:34:38.504Z,660.33
2023-02-22T00:38:41.397Z,742.85
2023-02-22T00:42:43.316Z,706.97
2023-02-22T00:46:45.229Z,689.33
2023-02-22T00:50:48.681Z,660.83
2023-02-22T00:54:50.460Z,658.28
2023-02-22T00:58:52.186Z,639.38
2023-02-22T01:02:56.084Z,631.55
2023-02-22T01:07:00.590Z,596.38
2023-02-22T01:11:02.528Z,596.45
2023-02-22T01:15:06.045Z,577.05
2023-02-22T01:19:07.750Z,561.92
2023-02-22T01:23:10.755Z,674.85
2023-02-22T01:27:12.757Z,794.97
2023-02-22T01:31:14.830Z,694.60
2023-02-22T01:35:25.534Z,666.60
2023-02-22T01:39:27.725Z,664.78
2023-02-22T01:43:31.224Z,647.55
2023-02-22T01:47:32.948Z,637.85
2023-02-22T01:51:39.325Z,720.92
2023-02-22T01:55:42.009Z,799.90
2023-02-22T01:59:48.249Z,797.75
2023-02-22T02:03:52.031Z,781.78
2023-02-22T02:07:54.319Z,753.83
2023-02-22T02:12:00.890Z,733.50
2023-02-22T02:16:02.673Z,715.67
2023-02-22T02:20:14.861Z,702.30
2023-02-22T02:24:44.742Z,682.08
2023-02-22T02:29:19.828Z,663.80
2023-02-22T02:33:46.456Z,633.78
2023-02-22T02:38:05.447Z,633.50
2023-02-22T02:42:12.673Z,614.95
2023-02-22T02:46:40.194Z,592.85
2023-02-22T02:50:48.048Z,582.47
2023-02-22T02:54:50.944Z,570.97
2023-02-22T02:58:53.874Z,552.35
2023-02-22T03:03:02.505Z,553.45
2023-02-22T03:07:23.288Z,533.65
2023-02-22T03:11:48.630Z,522.78
2023-02-22T03:16:07.444Z,508.80
2023-02-22T03:25:10.301Z,495.45
2023-02-22T03:29:17.994Z,496.83
2023-02-22T03:33:44.987Z,480.02
2023-02-22T03:37:50.742Z,485.23
2023-02-22T03:41:54.477Z,471.30
2023-02-22T03:46:00.875Z,458.60
2023-02-22T03:50:13.964Z,463.88
2023-02-22T03:54:17.319Z,438.50
2023-02-22T03:58:24.195Z,430.52
2023-02-22T04:02:26.620Z,423.77
2023-02-22T04:06:29.488Z,416.40
2023-02-22T04:10:33.566Z,398.38
2023-02-22T04:14:35.965Z,398.02
2023-02-22T04:18:37.750Z,386.80
2023-02-22T04:22:41.450Z,383.90
2023-02-22T04:26:43.781Z,367.13
2023-02-22T04:30:46.545Z,351.55
2023-02-22T04:34:50.469Z,346.58
2023-02-22T04:38:52.341Z,339.40
2023-02-22T04:42:54.228Z,338.08
2023-02-22T04:46:56.760Z,327.77
2023-02-22T04:50:58.679Z,323.38
2023-02-22T04:55:02.807Z,318.73
2023-02-22T04:59:07.178Z,291.30
2023-02-22T05:03:09.204Z,296.02
2023-02-22T05:07:11.392Z,288.75
2023-02-22T05:11:13.309Z,279.48
2023-02-22T05:15:18.601Z,277.15
2023-02-22T05:19:20.361Z,260.33
2023-02-22T05:23:22.061Z,259.95
2023-02-22T05:27:23.731Z,267.48
2023-02-22T05:31:25.529Z,257.55
2023-02-22T05:35:29.591Z,234.55
2023-02-22T05:39:31.769Z,238.75
2023-02-22T05:43:33.767Z,233.45
2023-02-22T05:47:35.646Z,224.70
2023-02-22T05:51:37.390Z,224.13
2023-02-22T05:55:39.130Z,216.95
2023-02-22T05:59:41.052Z,217.43
2023-02-22T06:03:42.809Z,205.98
2023-02-22T06:07:44.495Z,201.23
2023-02-22T06:11:46.232Z,199.40
2023-02-22T06:15:47.968Z,186.82
2023-02-22T06:19:49.685Z,180.05
2023-02-22T06:23:51.554Z,195.52
2023-02-22T06:27:53.520Z,182.45
2023-02-22T06:31:55.683Z,177.82
2023-02-22T06:35:57.490Z,172.30
2023-02-22T06:40:04.830Z,160.23
2023-02-22T06:44:07.148Z,166.68
2023-02-22T06:48:09.412Z,155.52
2023-02-22T06:52:11.149Z,162.05
2023-02-22T06:56:12.987Z,154.40
2023-02-22T07:00:19.736Z,147.27
2023-02-22T07:04:21.958Z,157.82
2023-02-22T07:08:23.665Z,135.70
2023-02-22T07:12:25.348Z,133.82
2023-02-22T07:16:27.054Z,141.57
2023-02-22T07:20:31.118Z,134.15
2023-02-22T07:24:35.186Z,131.70
2023-02-22T07:28:36.951Z,128.20
2023-02-22T07:32:38.749Z,124.50
2023-02-22T07:36:40.623Z,119.22
2023-02-22T07:40:43.062Z,120.20
2023-02-22T07:44:44.777Z,111.43
2023-02-22T07:48:46.522Z,113.57
2023-02-22T07:52:49.901Z,110.25
2023-02-22T07:56:51.590Z,112.10
2023-02-22T08:00:53.533Z,108.35
2023-02-22T08:04:55.252Z,106.15
2023-02-22T08:08:56.967Z,105.55
2023-02-22T08:12:59.189Z,98.60
2023-02-22T08:17:00.961Z,99.15
2023-02-22T08:21:02.721Z,98.00
2023-02-22T08:25:04.692Z,94.55
2023-02-22T08:29:06.622Z,98.75
2023-02-22T08:33:08.658Z,92.43
2023-02-22T08:37:10.565Z,91.10
2023-02-22T08:41:12.347Z,94.15
2023-02-22T08:45:14.372Z,90.43
2023-02-22T08:49:16.095Z,87.95
2023-02-22T08:53:18.052Z,85.30
2023-02-22T08:57:21.663Z,85.50
2023-02-22T09:01:33.354Z,79.50
2023-02-22T09:05:35.461Z,74.70
2023-02-22T09:09:37.271Z,82.25
2023-02-22T09:13:39.082Z,77.43
2023-02-22T09:17:40.969Z,74.55
2023-02-22T09:21:42.724Z,81.20
2023-02-22T09:25:44.478Z,71.70
2023-02-22T09:29:48.996Z,68.30
2023-02-22T09:33:50.730Z,72.97
2023-02-22T09:37:57.559Z,69.97
2023-02-22T09:42:21.085Z,68.32
2023-02-22T09:46:29.687Z,68.07
2023-02-22T09:50:37.378Z,70.53
2023-02-22T09:54:39.058Z,72.65
2023-02-22T09:58:45.998Z,62.30
2023-02-22T10:03:03.581Z,60.40
2023-02-22T10:07:18.413Z,62.13
2023-02-22T10:11:28.434Z,64.38
2023-02-22T10:15:43.113Z,57.47
2023-02-22T10:20:18.977Z,64.72
2023-02-22T10:24:39.790Z,54.85
2023-02-22T10:28:56.071Z,48.13
2023-02-22T10:33:12.929Z,55.30
2023-02-22T10:37:27.379Z,47.42
2023-02-22T10:41:29.138Z,53.15
2023-02-22T10:45:33.721Z,45.88
2023-02-22T10:49:43.424Z,53.00
2023-02-22T10:53:56.334Z,51.30
2023-02-22T10:58:06.883Z,58.95
2023-02-22T11:02:17.975Z,51.53
2023-02-22T11:06:20.456Z,53.72
2023-02-22T11:10:32.049Z,51.05
2023-02-22T11:14:34.122Z,49.63
2023-02-22T11:18:36.078Z,51.25
2023-02-22T11:22:42.203Z,49.22
2023-02-22T11:26:50.333Z,42.58
2023-02-22T11:35:29.928Z,50.60
2023-02-22T11:39:35.612Z,55.10
2023-02-22T11:43:37.736Z,434.77
2023-02-22T11:48:02.775Z,380.23
2023-02-22T11:52:27.168Z,516.10
2023-02-22T11:56:40.664Z,505.38
2023-02-22T12:00:55.631Z,469.58
2023-02-22T12:05:08.147Z,443.38
2023-02-22T12:09:43.503Z,418.50
2023-02-22T12:13:48.204Z,392.88
2023-02-22T12:18:07.854Z,385.60
2023-02-22T12:22:26.987Z,338.48
2023-02-22T12:26:34.928Z,503.42
2023-02-22T12:30:41.335Z,652.00
2023-02-22T12:34:48.848Z,583.33
2023-02-22T12:39:00.566Z,570.90
2023-02-22T12:43:27.626Z,556.72
2023-02-22T12:47:37.509Z,536.55
2023-02-22T12:51:45.384Z,534.92
2023-02-22T12:56:00.363Z,511.88
2023-02-22T13:00:28.052Z,501.60
2023-02-22T13:04:32.147Z,487.30
2023-02-22T13:08:42.074Z,475.63
2023-02-22T13:13:04.919Z,473.17
2023-02-22T13:17:24.352Z,457.75
2023-02-22T13:21:34.766Z,445.25
2023-02-22T13:25:42.421Z,432.50
2023-02-22T13:29:50.277Z,418.92
2023-02-22T13:34:04.122Z,418.27
2023-02-22T13:38:36.844Z,401.05
2023-02-22T13:43:11.548Z,386.40
2023-02-22T13:47:28.174Z,389.17
2023-02-22T13:51:47.967Z,368.45
2023-02-22T13:55:56.728Z,357.50
2023-02-22T14:00:21.011Z,351.20
2023-02-22T14:04:40.380Z,351.55
2023-02-22T14:08:42.780Z,317.15
2023-02-22T14:12:48.563Z,325.02
2023-02-22T14:17:16.953Z,315.05
2023-02-22T14:21:23.013Z,291.08
2023-02-22T14:25:33.866Z,304.15
2023-02-22T14:33:55.813Z,283.27
2023-02-22T14:38:00.439Z,278.48
2023-02-22T14:42:12.628Z,264.58
2023-02-22T14:46:27.986Z,256.92
2023-02-22T14:50:45.977Z,250.35
2023-02-22T14:55:04.844Z,245.48
2023-02-22T14:59:27.077Z,236.43
2023-02-22T15:03:37.555Z,230.27
2023-02-22T15:07:39.401Z,225.88
2023-02-22T15:11:41.381Z,225.70
2023-02-22T15:15:49.779Z,217.07
2023-02-22T15:19:52.777Z,210.13
2023-02-22T15:24:08.174Z,215.95
2023-02-22T15:28:14.639Z,208.05
2023-02-22T15:32:29.469Z,196.68
2023-02-22T15:36:31.358Z,190.52
2023-02-22T15:40:34.854Z,195.75
2023-02-22T15:44:40.300Z,187.02
2023-02-22T15:48:42.061Z,181.57
2023-02-22T15:52:58.372Z,172.57
2023-02-22T15:57:00.222Z,161.50
2023-02-22T16:01:07.856Z,161.75
2023-02-22T16:05:13.344Z,159.00
2023-02-22T16:09:18.916Z,149.70
2023-02-22T16:13:31.427Z,152.95
2023-02-22T16:17:49.275Z,153.07
2023-02-22T16:21:58.479Z,153.75
2023-02-22T16:26:25.324Z,136.80
2023-02-22T16:30:39.600Z,143.00
2023-02-22T16:34:41.536Z,135.45
2023-02-22T16:38:48.440Z,126.57
2023-02-22T16:42:52.539Z,108.97
2023-02-22T16:46:57.751Z,110.07
2023-02-22T16:51:24.498Z,98.32
2023-02-22T16:55:26.836Z,548.40
2023-02-22T16:59:36.434Z,624.55
2023-02-22T17:03:38.577Z,474.55
2023-02-22T17:07:40.654Z,457.50
2023-02-22T17:11:43.815Z,671.10
2023-02-22T17:15:45.527Z,706.05
2023-02-22T17:19:47.288Z,649.85
2023-02-22T17:23:49.102Z,637.97
2023-02-22T17:27:50.859Z,606.47
2023-02-22T17:31:52.943Z,590.60
2023-02-22T17:35:59.197Z,582.88
2023-02-22T17:40:01.015Z,569.83
2023-02-22T17:44:03.604Z,558.45
2023-02-22T17:48:05.777Z,548.97
2023-02-22T17:52:07.731Z,536.58
2023-02-22T17:56:13.479Z,514.17
2023-02-22T18:00:23.422Z,504.27
2023-02-22T18:04:25.314Z,493.42
2023-02-22T18:08:29.939Z,485.70
2023-02-22T18:12:32.585Z,479.98
2023-02-22T18:16:34.484Z,474.80
2023-02-22T18:20:38.977Z,456.40
2023-02-22T18:24:40.724Z,442.90
2023-02-22T18:28:43.056Z,446.15
2023-02-22T18:32:46.203Z,439.08
2023-02-22T18:36:48.764Z,428.05
2023-02-22T18:41:02.410Z,396.95
2023-02-22T18:45:05.649Z,401.25
2023-02-22T18:49:07.386Z,380.55
2023-02-22T18:53:09.186Z,363.80
2023-02-22T18:57:12.835Z,367.42
2023-02-22T19:01:17.659Z,352.08
2023-02-22T19:05:19.543Z,351.05
2023-02-22T19:09:21.339Z,332.50
2023-02-22T19:13:23.083Z,327.92
2023-02-22T19:17:25.701Z,324.10
2023-02-22T19:21:29.045Z,316.38
2023-02-22T19:25:40.475Z,298.10
2023-02-22T19:29:42.361Z,304.27
2023-02-22T19:33:45.294Z,289.38
2023-02-22T19:37:48.183Z,285.40
2023-02-22T19:41:50.973Z,276.80
2023-02-22T19:45:52.737Z,274.80
2023-02-22T19:49:57.195Z,261.65
2023-02-22T19:54:04.111Z,254.60
2023-02-22T19:58:05.890Z,256.65
2023-02-22T20:02:11.650Z,241.45
2023-02-22T20:06:16.655Z,245.13
2023-02-22T20:10:19.216Z,242.10
2023-02-22T20:14:25.032Z,229.88
2023-02-22T20:18:26.833Z,224.20
2023-02-22T20:22:28.575Z,220.13
2023-02-22T20:26:35.044Z,208.68
2023-02-22T20:30:38.080Z,200.43
2023-02-22T20:34:39.806Z,200.23
2023-02-22T20:38:41.892Z,196.50
2023-02-22T20:42:44.693Z,194.30
2023-02-22T20:46:47.694Z,189.25
2023-02-22T20:50:49.414Z,178.27
2023-02-22T20:54:51.305Z,178.63
2023-02-22T20:58:53.490Z,175.70
2023-02-22T21:02:55.599Z,169.73
2023-02-22T21:06:57.436Z,174.50
2023-02-22T21:10:59.714Z,168.50
2023-02-22T21:15:01.483Z,160.00
2023-02-22T21:19:06.570Z,159.75
2023-02-22T21:23:08.716Z,151.77
2023-02-22T21:27:12.312Z,157.80
2023-02-22T21:31:14.229Z,153.85
2023-02-22T21:35:16.151Z,139.77
2023-02-22T21:39:18.381Z,144.48
2023-02-22T21:43:20.254Z,138.70
2023-02-22T21:47:23.563Z,142.57
2023-02-22T21:51:31.592Z,503.30
2023-02-22T21:55:34.152Z,550.72
2023-02-22T21:59:35.847Z,497.67
2023-02-22T22:03:37.614Z,461.42
2023-02-22T22:07:41.573Z,438.40
2023-02-22T22:11:43.241Z,436.67
2023-02-22T22:15:45.017Z,420.65
2023-02-22T22:19:48.951Z,402.15
2023-02-22T22:23:54.509Z,385.95
2023-02-22T22:27:56.335Z,373.50
2023-02-22T22:31:58.404Z,377.27
2023-02-22T22:36:00.761Z,580.67
2023-02-22T22:40:04.978Z,526.75
2023-02-22T22:44:09.496Z,487.92
2023-02-22T22:48:15.052Z,483.42
2023-02-22T22:52:18.248Z,458.73
2023-02-22T22:56:26.456Z,456.70
2023-02-22T23:00:37.857Z,443.65
2023-02-22T23:04:39.587Z,427.00
2023-02-22T23:08:43.290Z,602.38
2023-02-22T23:12:45.766Z,714.03
2023-02-22T23:16:52.667Z,681.53
2023-02-22T23:20:57.220Z,659.10
2023-02-22T23:25:00.023Z,622.80
2023-02-22T23:29:03.222Z,602.40
2023-02-22T23:33:04.965Z,585.60
2023-02-22T23:37:10.283Z,579.67
2023-02-22T23:41:16.606Z,556.88
2023-02-22T23:45:24.508Z,550.65
2023-02-22T23:49:35.824Z,534.17
2023-02-22T23:53:39.307Z,529.63
2023-02-22T23:57:43.822Z,515.85
